createdAt,value
2018-09-28T00:00:35.978Z,12.39
2018-09-28T00:01:35.979Z,12.37
2018-09-28T00:02:35.901Z,12.32
2018-09-28T00:03:35.775Z,12.29
2018-09-28T00:04:35.741Z,12.37
2018-09-28T00:05:35.658Z,12.28
2018-09-28T00:06:35.624Z,12.20
2018-09-28T00:07:35.626Z,12.20
2018-09-28T00:08:35.631Z,12.21
2018-09-28T00:09:35.506Z,12.21
2018-09-28T00:10:35.423Z,12.18
2018-09-28T00:11:35.390Z,12.22
2018-09-28T00:12:35.389Z,12.18
2018-09-28T00:13:35.271Z,12.20
2018-09-28T00:14:35.272Z,12.13
2018-09-28T00:15:35.272Z,12.10
2018-09-28T00:16:35.272Z,12.07
2018-09-28T00:17:35.273Z,12.10
2018-09-28T00:18:35.158Z,12.20
2018-09-28T00:19:35.036Z,12.06
2018-09-28T00:20:35.039Z,12.15
2018-09-28T00:21:35.040Z,12.09
2018-09-28T00:22:35.043Z,12.18
2018-09-28T00:23:35.039Z,12.07
2018-09-28T00:24:34.800Z,12.13
2018-09-28T00:25:34.803Z,12.13
2018-09-28T00:26:34.683Z,12.07
2018-09-28T00:27:34.683Z,12.07
2018-09-28T00:28:34.684Z,12.07
2018-09-28T00:29:34.568Z,12.02
2018-09-28T00:30:34.569Z,11.97
2018-09-28T00:31:34.567Z,11.90
2018-09-28T00:32:34.569Z,11.90
2018-09-28T00:33:34.329Z,11.94
2018-09-28T00:34:34.332Z,11.86
2018-09-28T00:35:34.332Z,11.91
2018-09-28T00:36:34.212Z,11.88
2018-09-28T00:37:34.336Z,11.94
2018-09-28T00:38:34.094Z,11.94
2018-09-28T00:39:34.096Z,11.91
2018-09-28T00:40:33.977Z,11.88
2018-09-28T00:41:34.098Z,11.94
2018-09-28T00:42:33.980Z,11.94
2018-09-28T00:43:33.859Z,11.87
2018-09-28T00:44:33.862Z,11.90
2018-09-28T00:45:33.742Z,11.91
2018-09-28T00:46:33.862Z,11.88
2018-09-28T00:47:33.626Z,11.86
2018-09-28T00:48:33.624Z,11.86
2018-09-28T00:49:33.746Z,11.87
2018-09-28T00:50:33.505Z,11.88
2018-09-28T00:51:33.509Z,11.81
2018-09-28T00:52:33.508Z,11.84
2018-09-28T00:53:33.389Z,11.83
2018-09-28T00:54:33.270Z,11.88
2018-09-28T00:55:33.272Z,11.91
2018-09-28T00:56:33.272Z,11.88
2018-09-28T00:57:33.400Z,11.91
2018-09-28T00:58:33.153Z,11.90
2018-09-28T00:59:33.038Z,11.88
2018-09-28T01:00:33.034Z,11.91
2018-09-28T01:01:33.037Z,11.99
2018-09-28T01:02:32.918Z,11.94
2018-09-28T01:03:32.920Z,11.94
2018-09-28T01:04:32.800Z,11.87
2018-09-28T01:05:32.800Z,11.91
2018-09-28T01:06:32.801Z,11.88
2018-09-28T01:07:32.683Z,11.88
2018-09-28T01:08:32.564Z,11.84
2018-09-28T01:09:32.565Z,11.88
2018-09-28T01:10:32.685Z,11.88
2018-09-28T01:11:32.567Z,11.94
2018-09-28T01:12:32.566Z,11.87
2018-09-28T01:13:32.447Z,11.91
2018-09-28T01:14:32.328Z,11.90
2018-09-28T01:15:32.330Z,11.99
2018-09-28T01:16:32.150Z,12.02
2018-09-28T01:17:32.267Z,12.00
2018-09-28T01:18:32.212Z,11.99
2018-09-28T01:19:32.028Z,12.00
2018-09-28T01:20:32.025Z,12.03
2018-09-28T01:21:31.863Z,11.99
2018-09-28T01:22:31.861Z,11.88
2018-09-28T01:23:31.788Z,11.90
2018-09-28T01:24:31.744Z,11.84
2018-09-28T01:25:31.745Z,11.73
2018-09-28T01:26:31.628Z,11.75
2018-09-28T01:27:31.630Z,11.70
2018-09-28T01:28:31.509Z,11.72
2018-09-28T01:29:31.440Z,11.72
2018-09-28T01:30:31.389Z,11.69
2018-09-28T01:31:31.390Z,11.72
2018-09-28T01:32:31.322Z,11.70
2018-09-28T01:33:31.270Z,11.70
2018-09-28T01:34:31.196Z,11.69
2018-09-28T01:35:31.155Z,11.66
2018-09-28T01:36:31.073Z,11.69
2018-09-28T01:37:31.077Z,11.72
2018-09-28T01:38:31.036Z,11.65
2018-09-28T01:39:30.952Z,11.66
2018-09-28T01:40:30.965Z,11.68
2018-09-28T01:41:30.844Z,11.65
2018-09-28T01:42:30.800Z,11.60
2018-09-28T01:43:30.717Z,11.48
2018-09-28T01:44:30.719Z,11.51
2018-09-28T01:45:30.719Z,11.59
2018-09-28T01:46:30.594Z,11.45
2018-09-28T01:47:30.564Z,11.44
2018-09-28T01:48:30.481Z,11.44
2018-09-28T01:49:30.487Z,11.45
2018-09-28T01:50:30.374Z,11.43
2018-09-28T01:51:30.328Z,11.30
2018-09-28T01:52:30.326Z,11.27
2018-09-28T01:53:30.243Z,11.27
2018-09-28T01:54:30.250Z,11.27
2018-09-28T01:55:30.126Z,11.26
2018-09-28T01:56:30.090Z,11.35
2018-09-28T01:57:30.004Z,11.32
2018-09-28T01:58:29.973Z,11.35
2018-09-28T01:59:30.004Z,11.25
2018-09-28T02:00:29.883Z,11.25
2018-09-28T02:01:29.853Z,11.22
2018-09-28T02:02:29.769Z,11.18
2018-09-28T02:03:29.737Z,11.23
2018-09-28T02:04:29.736Z,11.23
2018-09-28T02:05:29.660Z,11.19
2018-09-28T02:06:29.619Z,11.18
2018-09-28T02:07:29.532Z,11.12
2018-09-28T02:08:29.501Z,11.10
2018-09-28T02:09:29.502Z,11.15
2018-09-28T02:10:29.383Z,11.02
2018-09-28T02:11:29.383Z,11.04
2018-09-28T02:12:29.314Z,10.90
2018-09-28T02:13:29.267Z,10.90
2018-09-28T02:14:29.168Z,10.93
2018-09-28T02:15:29.148Z,10.82
2018-09-28T02:16:29.062Z,10.75
2018-09-28T02:17:29.102Z,10.76
2018-09-28T02:18:28.964Z,10.63
2018-09-28T02:19:28.912Z,10.68
2018-09-28T02:20:28.952Z,10.60
2018-09-28T02:21:28.816Z,10.61
2018-09-28T02:22:28.796Z,10.63
2018-09-28T02:23:28.716Z,10.61
2018-09-28T02:24:28.676Z,10.57
2018-09-28T02:25:28.704Z,10.56
2018-09-28T02:26:28.610Z,10.67
2018-09-28T02:27:28.562Z,10.63
2018-09-28T02:28:28.456Z,10.61
2018-09-28T02:29:28.441Z,10.53
2018-09-28T02:30:28.358Z,10.54
2018-09-28T02:31:28.360Z,10.49
2018-09-28T02:32:28.248Z,10.64
2018-09-28T02:33:28.204Z,10.53
2018-09-28T02:34:28.206Z,10.48
2018-09-28T02:35:28.097Z,10.59
2018-09-28T02:36:28.134Z,10.60
2018-09-28T02:37:28.002Z,10.57
2018-09-28T02:38:27.969Z,10.56
2018-09-28T02:39:27.896Z,10.53
2018-09-28T02:40:27.852Z,10.53
2018-09-28T02:41:27.862Z,10.44
2018-09-28T02:42:27.741Z,10.44
2018-09-28T02:43:27.773Z,10.40
2018-09-28T02:44:27.644Z,10.37
2018-09-28T02:45:27.663Z,10.34
2018-09-28T02:46:27.542Z,10.38
2018-09-28T02:47:27.508Z,10.26
2018-09-28T02:48:27.417Z,10.26
2018-09-28T02:49:27.389Z,10.26
2018-09-28T02:50:27.417Z,10.22
2018-09-28T02:51:27.298Z,10.33
2018-09-28T02:52:27.264Z,10.28
2018-09-28T02:53:27.180Z,10.31
2018-09-28T02:54:27.185Z,10.38
2018-09-28T02:55:27.062Z,10.35
2018-09-28T02:56:27.028Z,10.40
2018-09-28T02:57:27.029Z,10.37
2018-09-28T02:58:26.912Z,10.46
2018-09-28T02:59:26.944Z,10.40
2018-09-28T03:00:26.826Z,10.42
2018-09-28T03:01:26.792Z,10.49
2018-09-28T03:02:26.705Z,10.48
2018-09-28T03:03:26.673Z,10.51
2018-09-28T03:04:26.674Z,10.42
2018-09-28T03:05:26.557Z,10.51
2018-09-28T03:06:26.590Z,10.37
2018-09-28T03:07:26.471Z,10.53
2018-09-28T03:08:26.441Z,10.46
2018-09-28T03:09:26.443Z,10.41
2018-09-28T03:10:26.353Z,10.35
2018-09-28T03:11:26.239Z,10.46
2018-09-28T03:12:26.207Z,10.37
2018-09-28T03:13:26.204Z,10.49
2018-09-28T03:14:26.120Z,10.48
2018-09-28T03:15:26.125Z,10.40
2018-09-28T03:16:26.006Z,10.38
2018-09-28T03:17:25.967Z,10.41
2018-09-28T03:18:25.886Z,10.38
2018-09-28T03:19:25.850Z,10.37
2018-09-28T03:20:25.851Z,10.38
2018-09-28T03:21:25.771Z,10.41
2018-09-28T03:22:25.733Z,10.41
2018-09-28T03:23:25.647Z,10.34
2018-09-28T03:24:25.614Z,10.35
2018-09-28T03:25:25.616Z,10.31
2018-09-28T03:26:25.538Z,10.33
2018-09-28T03:27:25.498Z,10.26
2018-09-28T03:28:25.413Z,10.23
2018-09-28T03:29:25.379Z,10.28
2018-09-28T03:30:25.386Z,10.25
2018-09-28T03:31:25.384Z,10.25
2018-09-28T03:32:25.181Z,10.15
2018-09-28T03:33:25.148Z,10.15
2018-09-28T03:34:25.148Z,10.13
2018-09-28T03:35:25.146Z,10.05
2018-09-28T03:36:25.153Z,10.05
2018-09-28T03:37:25.030Z,10.02
2018-09-28T03:38:25.034Z,10.09
2018-09-28T03:39:24.912Z,10.10
2018-09-28T03:40:24.914Z,9.99
2018-09-28T03:41:24.792Z,9.98
2018-09-28T03:42:24.793Z,9.95
2018-09-28T03:43:24.810Z,9.83
2018-09-28T03:44:24.674Z,9.94
2018-09-28T03:45:24.676Z,9.91
2018-09-28T03:46:24.675Z,9.94
2018-09-28T03:47:24.564Z,9.91
2018-09-28T03:48:24.440Z,9.92
2018-09-28T03:49:24.558Z,9.86
2018-09-28T03:50:24.321Z,9.80
2018-09-28T03:51:24.350Z,9.76
2018-09-28T03:52:24.320Z,9.73
2018-09-28T03:53:24.202Z,9.69
2018-09-28T03:54:24.323Z,9.76
2018-09-28T03:55:24.085Z,9.72
2018-09-28T03:56:24.087Z,9.69
2018-09-28T03:57:24.087Z,9.62
2018-09-28T03:58:24.087Z,9.61
2018-09-28T03:59:23.967Z,9.65
2018-09-28T04:00:23.851Z,9.68
2018-09-28T04:01:23.970Z,9.68
2018-09-28T04:02:23.731Z,9.74
2018-09-28T04:03:23.731Z,9.72
2018-09-28T04:04:23.614Z,9.69
2018-09-28T04:05:23.613Z,9.74
2018-09-28T04:06:23.615Z,9.69
2018-09-28T04:07:23.658Z,9.72
2018-09-28T04:08:23.499Z,9.62
2018-09-28T04:09:23.381Z,9.66
2018-09-28T04:10:23.382Z,9.69
2018-09-28T04:11:23.260Z,9.59
2018-09-28T04:12:23.380Z,9.56
2018-09-28T04:13:23.142Z,9.55
2018-09-28T04:14:23.143Z,9.58
2018-09-28T04:15:23.145Z,9.55
2018-09-28T04:16:23.024Z,9.56
2018-09-28T04:17:23.146Z,9.66
2018-09-28T04:18:22.907Z,9.59
2018-09-28T04:19:22.911Z,9.56
2018-09-28T04:20:22.789Z,9.61
2018-09-28T04:21:22.790Z,9.50
2018-09-28T04:22:22.790Z,9.55
2018-09-28T04:23:22.681Z,9.59
2018-09-28T04:24:22.672Z,9.55
2018-09-28T04:25:22.674Z,9.56
2018-09-28T04:26:22.554Z,9.59
2018-09-28T04:27:22.676Z,9.54
2018-09-28T04:28:22.435Z,9.54
2018-09-28T04:29:22.318Z,9.55
2018-09-28T04:30:22.323Z,9.50
2018-09-28T04:31:22.318Z,9.51
2018-09-28T04:32:22.320Z,9.51
2018-09-28T04:33:22.200Z,9.44
2018-09-28T04:34:22.201Z,9.50
2018-09-28T04:35:22.082Z,9.54
2018-09-28T04:36:21.963Z,9.47
2018-09-28T04:37:22.085Z,9.50
2018-09-28T04:38:21.844Z,9.50
2018-09-28T04:39:21.965Z,9.55
2018-09-28T04:40:21.848Z,9.46
2018-09-28T04:41:21.727Z,9.34
2018-09-28T04:42:21.851Z,9.41
2018-09-28T04:43:21.611Z,9.37
2018-09-28T04:44:21.544Z,9.37
2018-09-28T04:45:21.735Z,9.40
2018-09-28T04:46:21.494Z,9.21
2018-09-28T04:47:21.425Z,9.26
2018-09-28T04:48:21.377Z,9.19
2018-09-28T04:49:21.261Z,9.18
2018-09-28T04:50:21.144Z,9.22
2018-09-28T04:51:21.306Z,9.18
2018-09-28T04:52:21.139Z,9.08
2018-09-28T04:53:21.025Z,9.19
2018-09-28T04:54:21.020Z,9.08
2018-09-28T04:55:20.952Z,8.92
2018-09-28T04:56:20.909Z,9.02
2018-09-28T04:57:20.838Z,8.94
2018-09-28T04:58:20.794Z,8.99
2018-09-28T04:59:20.787Z,8.95
2018-09-28T05:00:20.675Z,8.91
2018-09-28T05:01:21.036Z,8.95
2018-09-28T05:02:20.596Z,8.97
2018-09-28T05:03:20.484Z,9.02
2018-09-28T05:04:20.438Z,9.03
2018-09-28T05:05:20.442Z,8.94
2018-09-28T05:06:20.323Z,9.06
2018-09-28T05:07:20.366Z,9.10
2018-09-28T05:08:20.242Z,9.13
2018-09-28T05:09:20.198Z,9.11
2018-09-28T05:10:20.115Z,9.11
2018-09-28T05:11:20.079Z,9.18
2018-09-28T05:12:20.083Z,9.11
2018-09-28T05:13:19.967Z,9.16
2018-09-28T05:14:20.007Z,9.16
2018-09-28T05:15:19.851Z,9.13
2018-09-28T05:16:19.842Z,9.04
2018-09-28T05:17:19.764Z,9.02
2018-09-28T05:18:19.727Z,9.03
2018-09-28T05:19:19.759Z,8.99
2018-09-28T05:20:19.611Z,8.97
2018-09-28T05:21:19.609Z,8.92
2018-09-28T05:22:19.521Z,8.87
2018-09-28T05:23:19.488Z,8.92
2018-09-28T05:24:19.424Z,8.94
2018-09-28T05:25:19.441Z,8.81
2018-09-28T05:26:19.297Z,8.91
2018-09-28T05:27:19.294Z,8.81
2018-09-28T05:28:19.169Z,8.78
2018-09-28T05:29:19.136Z,8.79
2018-09-28T05:30:19.178Z,8.87
2018-09-28T05:31:19.103Z,8.82
2018-09-28T05:32:19.111Z,8.81
2018-09-28T05:33:18.927Z,8.78
2018-09-28T05:34:18.899Z,8.91
2018-09-28T05:35:18.902Z,8.84
2018-09-28T05:36:18.781Z,8.97
2018-09-28T05:37:18.772Z,9.02
2018-09-28T05:38:18.665Z,8.92
2018-09-28T05:39:18.680Z,9.00
2018-09-28T05:40:18.586Z,9.08
2018-09-28T05:41:18.589Z,8.97
2018-09-28T05:42:18.470Z,9.04
2018-09-28T05:43:18.431Z,9.04
2018-09-28T05:44:18.430Z,9.13
2018-09-28T05:45:18.311Z,9.04
2018-09-28T05:46:18.382Z,9.00
2018-09-28T05:47:18.192Z,9.11
2018-09-28T05:48:18.224Z,9.08
2018-09-28T05:49:18.089Z,9.06
2018-09-28T05:50:18.076Z,9.19
2018-09-28T05:51:18.046Z,9.11
2018-09-28T05:52:17.957Z,9.16
2018-09-28T05:53:17.958Z,9.08
2018-09-28T05:54:17.888Z,9.14
2018-09-28T05:55:17.767Z,9.04
2018-09-28T05:56:17.738Z,9.13
2018-09-28T05:57:17.722Z,9.08
2018-09-28T05:58:17.616Z,9.10
2018-09-28T05:59:17.650Z,9.13
2018-09-28T06:00:17.605Z,9.13
2018-09-28T06:01:17.485Z,9.21
2018-09-28T06:02:17.410Z,9.18
2018-09-28T06:03:17.366Z,9.19
2018-09-28T06:04:17.379Z,9.18
2018-09-28T06:05:17.290Z,9.25
2018-09-28T06:06:17.256Z,9.25
2018-09-28T06:07:17.139Z,9.22
2018-09-28T06:08:17.137Z,9.25
2018-09-28T06:09:17.140Z,9.36
2018-09-28T06:10:17.021Z,9.36
2018-09-28T06:11:16.934Z,9.41
2018-09-28T06:12:16.920Z,9.37
2018-09-28T06:13:16.911Z,9.44
2018-09-28T06:14:16.789Z,9.44
2018-09-28T06:15:16.788Z,9.40
2018-09-28T06:16:16.696Z,9.36
2018-09-28T06:17:16.663Z,9.31
2018-09-28T06:18:16.667Z,9.36
2018-09-28T06:19:16.550Z,9.43
2018-09-28T06:20:16.470Z,9.32
2018-09-28T06:21:16.459Z,9.41
2018-09-28T06:22:16.426Z,9.43
2018-09-28T06:23:16.308Z,9.44
2018-09-28T06:24:16.368Z,9.41
2018-09-28T06:25:16.228Z,9.54
2018-09-28T06:26:16.233Z,9.47
2018-09-28T06:27:16.107Z,9.56
2018-09-28T06:28:16.073Z,9.66
2018-09-28T06:29:15.983Z,9.62
2018-09-28T06:30:16.001Z,9.69
2018-09-28T06:31:15.989Z,9.69
2018-09-28T06:32:15.840Z,9.77
2018-09-28T06:33:15.837Z,9.87
2018-09-28T06:34:15.756Z,9.84
2018-09-28T06:35:15.718Z,9.89
2018-09-28T06:36:15.780Z,10.01
2018-09-28T06:37:15.599Z,10.04
2018-09-28T06:38:15.602Z,10.12
2018-09-28T06:39:15.484Z,10.16
2018-09-28T06:40:15.483Z,10.15
2018-09-28T06:41:15.486Z,10.20
2018-09-28T06:42:15.393Z,10.33
2018-09-28T06:43:15.365Z,10.40
2018-09-28T06:44:15.248Z,10.40
2018-09-28T06:45:15.248Z,10.53
2018-09-28T06:46:15.128Z,10.57
2018-09-28T06:47:15.129Z,10.46
2018-09-28T06:48:15.139Z,10.59
2018-09-28T06:49:15.012Z,10.61
2018-09-28T06:50:14.928Z,10.76
2018-09-28T06:51:14.899Z,10.71
2018-09-28T06:52:14.812Z,10.79
2018-09-28T06:53:14.895Z,10.79
2018-09-28T06:54:14.789Z,10.89
2018-09-28T06:55:14.697Z,10.96
2018-09-28T06:56:14.660Z,11.02
2018-09-28T06:57:14.572Z,11.08
2018-09-28T06:58:14.555Z,11.10
2018-09-28T06:59:14.541Z,11.11
2018-09-28T07:00:14.615Z,11.18
2018-09-28T07:01:14.339Z,11.29
2018-09-28T07:02:14.424Z,11.43
2018-09-28T07:03:14.311Z,11.47
2018-09-28T07:04:14.306Z,11.51
2018-09-28T07:05:14.306Z,11.55
2018-09-28T07:06:14.270Z,11.63
2018-09-28T07:07:14.188Z,11.72
2018-09-28T07:08:14.189Z,11.90
2018-09-28T07:09:14.076Z,12.00
2018-09-28T07:10:14.071Z,12.13
2018-09-28T07:11:14.072Z,12.21
2018-09-28T07:12:13.992Z,12.35
2018-09-28T07:13:13.835Z,12.28
2018-09-28T07:14:13.834Z,12.35
2018-09-28T07:15:13.717Z,12.39
2018-09-28T07:16:13.857Z,12.50
2018-09-28T07:17:13.718Z,12.58
2018-09-28T07:18:13.733Z,12.70
2018-09-28T07:19:13.604Z,12.82
2018-09-28T07:20:13.481Z,12.91
2018-09-28T07:21:13.602Z,12.93
2018-09-28T07:22:13.363Z,13.11
2018-09-28T07:23:13.364Z,13.16
2018-09-28T07:24:13.424Z,13.19
2018-09-28T07:25:13.310Z,13.35
2018-09-28T07:26:13.366Z,13.38
2018-09-28T07:27:13.127Z,13.41
2018-09-28T07:28:13.136Z,13.56
2018-09-28T07:29:13.132Z,13.74
2018-09-28T07:30:13.036Z,13.77
2018-09-28T07:31:13.013Z,13.89
2018-09-28T07:32:12.893Z,13.90
2018-09-28T07:33:13.015Z,14.05
2018-09-28T07:34:12.776Z,14.07
2018-09-28T07:35:12.776Z,14.23
2018-09-28T07:36:12.754Z,14.32
2018-09-28T07:37:12.972Z,14.32
2018-09-28T07:38:12.658Z,14.40
2018-09-28T07:39:12.540Z,14.55
2018-09-28T07:40:12.541Z,14.68
2018-09-28T07:41:12.421Z,14.78
2018-09-28T07:42:12.572Z,14.69
2018-09-28T07:43:12.423Z,14.88
2018-09-28T07:44:12.307Z,15.00
2018-09-28T07:45:12.305Z,15.21
2018-09-28T07:46:12.186Z,15.21
2018-09-28T07:47:12.307Z,15.46
2018-09-28T07:48:12.128Z,15.57
2018-09-28T07:49:12.083Z,15.73
2018-09-28T07:50:12.072Z,15.98
2018-09-28T07:51:11.951Z,16.54
2018-09-28T07:52:12.072Z,17.27
2018-09-28T07:53:11.832Z,17.87
2018-09-28T07:54:11.835Z,18.75
2018-09-28T07:55:11.836Z,19.63
2018-09-28T07:56:11.717Z,20.31
2018-09-28T07:57:11.840Z,20.85
2018-09-28T07:58:11.599Z,21.43
2018-09-28T07:59:11.599Z,21.83
2018-09-28T08:00:11.598Z,22.32
2018-09-28T08:01:11.600Z,22.80
2018-09-28T08:02:11.481Z,23.28
2018-09-28T08:03:11.483Z,23.63
2018-09-28T08:04:11.362Z,23.99
2018-09-28T08:05:11.365Z,24.35
2018-09-28T08:06:11.368Z,24.60
2018-09-28T08:07:11.246Z,24.73
2018-09-28T08:08:11.248Z,24.70
2018-09-28T08:09:11.182Z,24.93
2018-09-28T08:10:11.015Z,25.22
2018-09-28T08:11:11.136Z,25.55
2018-09-28T08:12:11.017Z,25.81
2018-09-28T08:13:11.018Z,26.03
2018-09-28T08:14:10.899Z,26.26
2018-09-28T08:15:10.949Z,26.36
2018-09-28T08:16:10.827Z,26.56
2018-09-28T08:17:10.827Z,26.66
2018-09-28T08:18:10.783Z,26.95
2018-09-28T08:19:10.709Z,26.99
2018-09-28T08:20:10.664Z,27.22
2018-09-28T08:21:10.666Z,27.37
2018-09-28T08:22:10.666Z,27.48
2018-09-28T08:23:10.611Z,27.59
2018-09-28T08:24:10.547Z,27.71
2018-09-28T08:25:10.549Z,27.86
2018-09-28T08:26:10.495Z,28.00
2018-09-28T08:27:10.480Z,28.05
2018-09-28T08:28:10.431Z,28.26
2018-09-28T08:29:10.357Z,28.38
2018-09-28T08:30:10.317Z,28.37
2018-09-28T08:31:10.314Z,28.44
2018-09-28T08:32:10.314Z,28.70
2018-09-28T08:33:10.315Z,28.63
2018-09-28T08:34:10.195Z,28.75
2018-09-28T08:35:10.195Z,28.86
2018-09-28T08:36:10.125Z,28.94
2018-09-28T08:37:10.077Z,29.08
2018-09-28T08:38:10.121Z,29.27
2018-09-28T08:39:09.996Z,29.12
2018-09-28T08:40:09.993Z,29.17
2018-09-28T08:41:09.960Z,29.20
2018-09-28T08:42:09.998Z,29.34
2018-09-28T08:43:10.082Z,29.45
2018-09-28T08:44:09.844Z,29.73
2018-09-28T08:45:09.842Z,29.90
2018-09-28T08:46:09.755Z,29.91
2018-09-28T08:47:09.760Z,29.88
2018-09-28T08:48:09.755Z,30.05
2018-09-28T08:49:09.745Z,30.13
2018-09-28T08:50:09.727Z,30.35
2018-09-28T08:51:09.609Z,30.48
2018-09-28T08:52:09.611Z,30.46
2018-09-28T08:53:09.611Z,30.44
2018-09-28T08:54:09.532Z,30.47
2018-09-28T08:55:09.530Z,30.57
2018-09-28T08:56:09.492Z,30.61
2018-09-28T08:57:09.414Z,30.73
2018-09-28T08:58:09.409Z,30.90
2018-09-28T08:59:09.379Z,30.97
2018-09-28T09:00:09.377Z,30.90
2018-09-28T09:01:09.286Z,30.88
2018-09-28T09:02:09.288Z,30.90
2018-09-28T09:03:09.293Z,31.15
2018-09-28T09:04:09.175Z,31.24
2018-09-28T09:05:09.143Z,31.39
2018-09-28T09:06:09.198Z,31.29
2018-09-28T09:07:09.079Z,31.24
2018-09-28T09:08:09.055Z,31.36
2018-09-28T09:09:09.025Z,31.47
2018-09-28T09:10:09.027Z,31.49
2018-09-28T09:11:09.030Z,31.49
2018-09-28T09:12:08.909Z,31.52
2018-09-28T09:13:08.960Z,31.33
2018-09-28T09:14:08.840Z,31.46
2018-09-28T09:15:08.807Z,31.73
2018-09-28T09:16:08.914Z,31.78
2018-09-28T09:17:08.794Z,31.78
2018-09-28T09:18:08.794Z,31.71
2018-09-28T09:19:08.676Z,31.96
2018-09-28T09:20:08.676Z,32.29
2018-09-28T09:21:08.690Z,32.41
2018-09-28T09:22:08.571Z,31.70
2018-09-28T09:23:08.559Z,31.74
2018-09-28T09:24:08.491Z,31.69
2018-09-28T09:25:08.476Z,31.87
2018-09-28T09:26:08.486Z,31.97
2018-09-28T09:27:08.444Z,31.74
2018-09-28T09:28:08.369Z,31.22
2018-09-28T09:29:08.330Z,30.69
2018-09-28T09:30:08.355Z,30.37
2018-09-28T09:31:08.337Z,30.27
2018-09-28T09:32:08.216Z,30.16
2018-09-28T09:33:08.210Z,30.15
2018-09-28T09:34:08.214Z,30.28
2018-09-28T09:35:08.137Z,30.25
2018-09-28T09:36:08.129Z,30.68
2018-09-28T09:37:08.104Z,30.69
2018-09-28T09:38:08.010Z,30.83
2018-09-28T09:39:08.011Z,30.54
2018-09-28T09:40:07.981Z,30.43
2018-09-28T09:41:07.978Z,30.53
2018-09-28T09:42:07.862Z,30.61
2018-09-28T09:43:07.859Z,30.77
2018-09-28T09:44:07.859Z,30.77
2018-09-28T09:45:07.745Z,30.68
2018-09-28T09:46:07.742Z,30.59
2018-09-28T09:47:07.742Z,30.61
2018-09-28T09:48:07.659Z,30.43
2018-09-28T09:49:07.659Z,30.16
2018-09-28T09:50:07.624Z,30.35
2018-09-28T09:51:07.635Z,30.50
2018-09-28T09:52:07.507Z,30.63
2018-09-28T09:53:07.509Z,30.51
2018-09-28T09:54:07.424Z,30.40
2018-09-28T09:55:07.425Z,30.12
2018-09-28T09:56:07.430Z,29.56
2018-09-28T09:57:07.310Z,29.53
2018-09-28T09:58:07.332Z,29.90
2018-09-28T09:59:07.280Z,30.12
2018-09-28T10:00:07.308Z,30.21
2018-09-28T10:01:07.194Z,30.25
2018-09-28T10:02:07.155Z,30.31
2018-09-28T10:03:07.157Z,30.57
2018-09-28T10:04:07.072Z,30.70
2018-09-28T10:05:07.078Z,30.28
2018-09-28T10:06:07.284Z,29.93
2018-09-28T10:07:06.962Z,29.69
2018-09-28T10:08:06.968Z,29.60
2018-09-28T10:09:06.932Z,29.59
2018-09-28T10:10:06.843Z,29.81
2018-09-28T10:11:06.924Z,29.90
2018-09-28T10:12:06.825Z,29.91
2018-09-28T10:13:06.718Z,29.66
2018-09-28T10:14:06.720Z,29.08
2018-09-28T10:15:06.690Z,28.63
2018-09-28T10:16:06.689Z,28.15
2018-09-28T10:17:06.698Z,27.86
2018-09-28T10:18:06.571Z,27.59
2018-09-28T10:19:06.588Z,27.42
2018-09-28T10:20:06.490Z,27.32
2018-09-28T10:21:06.455Z,27.30
2018-09-28T10:22:06.579Z,27.14
2018-09-28T10:23:06.458Z,27.02
2018-09-28T10:24:06.338Z,26.96
2018-09-28T10:25:06.338Z,26.84
2018-09-28T10:26:06.253Z,26.56
2018-09-28T10:27:06.364Z,26.59
2018-09-28T10:28:06.278Z,26.51
2018-09-28T10:29:06.225Z,26.53
2018-09-28T10:30:06.224Z,26.45
2018-09-28T10:31:06.107Z,26.23
2018-09-28T10:32:06.225Z,26.09
2018-09-28T10:33:06.226Z,26.03
2018-09-28T10:34:06.111Z,26.06
2018-09-28T10:35:05.987Z,26.10
2018-09-28T10:36:05.992Z,25.95
2018-09-28T10:37:05.991Z,25.63
2018-09-28T10:38:05.992Z,25.48
2018-09-28T10:39:05.896Z,25.26
2018-09-28T10:40:05.911Z,25.08
2018-09-28T10:41:05.763Z,24.93
2018-09-28T10:42:05.755Z,24.74
2018-09-28T10:43:05.878Z,24.51
2018-09-28T10:44:05.639Z,24.35
2018-09-28T10:45:05.647Z,24.11
2018-09-28T10:46:05.639Z,24.01
2018-09-28T10:47:05.523Z,23.83
2018-09-28T10:48:05.647Z,23.76
2018-09-28T10:49:05.522Z,23.55
2018-09-28T10:50:05.404Z,23.40
2018-09-28T10:51:05.408Z,23.21
2018-09-28T10:52:05.533Z,23.06
2018-09-28T10:53:05.502Z,22.87
2018-09-28T10:54:05.288Z,22.70
2018-09-28T10:55:05.293Z,22.66
2018-09-28T10:56:05.167Z,22.39
2018-09-28T10:57:05.289Z,22.39
2018-09-28T10:58:05.290Z,22.28
2018-09-28T10:59:05.056Z,22.10
2018-09-28T11:00:05.061Z,22.11
2018-09-28T11:01:05.053Z,21.96
2018-09-28T11:02:04.934Z,21.76
2018-09-28T11:03:05.055Z,21.62
2018-09-28T11:04:04.936Z,21.69
2018-09-28T11:05:04.815Z,21.54
2018-09-28T11:06:04.819Z,21.48
2018-09-28T11:07:04.819Z,21.40
2018-09-28T11:08:04.818Z,21.33
2018-09-28T11:09:04.711Z,21.15
2018-09-28T11:10:04.701Z,21.07
2018-09-28T11:11:04.589Z,20.87
2018-09-28T11:12:04.583Z,20.84
2018-09-28T11:13:04.707Z,20.85
2018-09-28T11:14:04.467Z,20.78
2018-09-28T11:15:04.585Z,20.52
2018-09-28T11:16:04.467Z,20.36
2018-09-28T11:17:04.350Z,20.32
2018-09-28T11:18:04.351Z,20.29
2018-09-28T11:19:04.405Z,20.32
2018-09-28T11:20:04.350Z,20.36
2018-09-28T11:21:04.353Z,20.25
2018-09-28T11:22:04.114Z,20.22
2018-09-28T11:23:04.113Z,20.10
2018-09-28T11:24:04.114Z,20.24
2018-09-28T11:25:04.116Z,20.28
2018-09-28T11:26:03.995Z,20.24
2018-09-28T11:27:04.117Z,20.25
2018-09-28T11:28:03.879Z,20.28
2018-09-28T11:29:03.877Z,20.24
2018-09-28T11:30:03.879Z,20.31
2018-09-28T11:31:03.760Z,20.36
2018-09-28T11:32:03.881Z,20.39
2018-09-28T11:33:03.762Z,20.32
2018-09-28T11:34:03.582Z,20.34
2018-09-28T11:35:03.643Z,20.36
2018-09-28T11:36:03.578Z,20.36
2018-09-28T11:37:03.577Z,20.37
2018-09-28T11:38:03.424Z,20.34
2018-09-28T11:39:03.407Z,20.26
2018-09-28T11:40:03.295Z,20.36
2018-09-28T11:41:03.301Z,20.39
2018-09-28T11:42:03.296Z,20.29
2018-09-28T11:43:03.196Z,20.41
2018-09-28T11:44:03.178Z,20.47
2018-09-28T11:45:03.059Z,20.55
2018-09-28T11:46:03.061Z,20.67
2018-09-28T11:47:03.061Z,20.70
2018-09-28T11:48:02.942Z,20.74
2018-09-28T11:49:02.983Z,20.80
2018-09-28T11:50:02.948Z,21.05
2018-09-28T11:51:02.825Z,21.11
2018-09-28T11:52:02.825Z,21.27
2018-09-28T11:53:02.826Z,21.32
2018-09-28T11:54:02.707Z,21.37
2018-09-28T11:55:02.710Z,21.45
2018-09-28T11:56:02.709Z,21.66
2018-09-28T11:57:02.589Z,21.62
2018-09-28T11:58:02.517Z,21.75
2018-09-28T11:59:02.471Z,21.80
2018-09-28T12:00:02.474Z,21.88
2018-09-28T12:01:02.475Z,21.82
2018-09-28T12:02:02.473Z,21.77
2018-09-28T12:03:02.356Z,21.77
2018-09-28T12:04:02.269Z,21.82
2018-09-28T12:05:02.268Z,21.83
2018-09-28T12:06:02.236Z,21.98
2018-09-28T12:07:02.207Z,22.00
2018-09-28T12:08:02.118Z,22.04
2018-09-28T12:09:02.040Z,22.08
2018-09-28T12:10:02.041Z,22.04
2018-09-28T12:11:02.080Z,22.14
2018-09-28T12:12:01.915Z,22.10
2018-09-28T12:13:01.881Z,22.28
2018-09-28T12:14:01.884Z,22.39
2018-09-28T12:15:01.884Z,22.41
2018-09-28T12:16:01.764Z,22.53
2018-09-28T12:17:01.766Z,22.57
2018-09-28T12:18:01.766Z,22.65
2018-09-28T12:19:01.646Z,22.80
2018-09-28T12:20:01.648Z,22.80
2018-09-28T12:21:01.534Z,22.72
2018-09-28T12:22:01.565Z,22.87
2018-09-28T12:23:01.533Z,23.03
2018-09-28T12:24:01.415Z,23.08
2018-09-28T12:25:01.413Z,22.91
2018-09-28T12:26:01.333Z,22.91
2018-09-28T12:27:01.295Z,22.76
2018-09-28T12:28:01.337Z,22.47
2018-09-28T12:29:01.218Z,22.26
2018-09-28T12:30:01.218Z,21.83
2018-09-28T12:31:01.180Z,21.52
2018-09-28T12:32:01.100Z,21.25
2018-09-28T12:33:01.101Z,21.09
2018-09-28T12:34:01.062Z,20.81
2018-09-28T12:35:00.962Z,20.74
2018-09-28T12:36:00.942Z,20.58
2018-09-28T12:37:00.876Z,20.43
2018-09-28T12:38:00.882Z,20.36
2018-09-28T12:39:00.840Z,20.36
2018-09-28T12:40:00.815Z,20.19
2018-09-28T12:41:00.708Z,20.24
2018-09-28T12:42:00.710Z,20.11
2018-09-28T12:43:00.712Z,20.04
2018-09-28T12:44:00.601Z,20.04
2018-09-28T12:45:00.644Z,19.91
2018-09-28T12:46:00.506Z,19.76
2018-09-28T12:47:00.493Z,19.77
2018-09-28T12:48:00.504Z,19.74
2018-09-28T12:49:00.369Z,19.71
2018-09-28T12:50:00.358Z,19.66
2018-09-28T12:51:00.282Z,19.63
2018-09-28T12:52:00.237Z,19.58
2018-09-28T12:53:00.285Z,19.59
2018-09-28T12:54:00.154Z,19.56
2018-09-28T12:55:00.122Z,19.47
2018-09-28T12:56:00.133Z,19.26
2018-09-28T12:57:00.011Z,19.11
2018-09-28T12:58:00.051Z,19.16